Time;durP1;ratioP1;P1;durP2;ratioP2;P2;SDS_P1;SDS_P2;PMS_P1;PMS_P2;Temp;Humidity;BMP_temperature;BMP_pressure;BME280_temperature;BME280_humidity;BME280_pressure;Samples;Min_cycle;Max_cycle;Signal;HPM_P1;HPM_P2
2021/10/08 00:00:29;;;;;;;9.35;3.85;;;;;;;6.94;99.16;101789.00;4989025;28;20057;-62
2021/10/08 00:03:14;;;;;;;8.10;3.35;;;;;;;7.02;98.91;101784.13;4988995;28;20061;-61
2021/10/08 00:05:59;;;;;;;7.03;3.38;;;;;;;7.05;98.84;101783.09;4993637;28;20058;-66
2021/10/08 00:08:45;;;;;;;5.72;3.47;;;;;;;7.14;98.80;101790.59;4992083;28;20065;-60
2021/10/08 00:11:31;;;;;;;5.60;3.70;;;;;;;7.16;98.54;101785.19;4988509;28;20065;-57
2021/10/08 00:14:15;;;;;;;4.95;3.20;;;;;;;7.14;98.55;101771.91;4991159;28;20570;-61
2021/10/08 00:17:01;;;;;;;5.70;3.65;;;;;;;7.10;98.39;101786.34;4987311;28;20196;-61
2021/10/08 00:19:46;;;;;;;5.00;3.28;;;;;;;7.03;98.46;101776.97;4993336;28;20069;-59
2021/10/08 00:22:31;;;;;;;4.35;2.90;;;;;;;6.94;98.61;101786.34;4992328;28;20185;-61
2021/10/08 00:25:17;;;;;;;5.63;3.80;;;;;;;6.92;98.73;101787.38;4993272;28;20069;-61
2021/10/08 00:28:02;;;;;;;5.82;3.50;;;;;;;6.83;98.90;101782.53;4990752;28;20188;-62
2021/10/08 00:30:47;;;;;;;5.30;3.40;;;;;;;6.81;99.01;101787.97;4991170;28;20053;-61
2021/10/08 00:33:32;;;;;;;6.90;3.40;;;;;;;6.82;98.97;101786.16;4991524;28;20177;-61
2021/10/08 00:36:17;;;;;;;5.68;3.80;;;;;;;6.73;99.06;101785.69;4991831;28;20101;-60
2021/10/08 00:39:03;;;;;;;4.68;3.33;;;;;;;6.67;99.19;101780.69;4991694;28;20065;-61
2021/10/08 00:41:49;;;;;;;7.53;3.40;;;;;;;6.66;99.33;101780.78;4992835;28;20468;-60
2021/10/08 00:44:35;;;;;;;7.50;3.40;;;;;;;6.70;99.71;101779.66;4985522;28;20124;-60
2021/10/08 00:47:20;;;;;;;6.57;3.03;;;;;;;6.77;100.00;101785.56;4993659;28;20057;-60
2021/10/08 00:50:06;;;;;;;6.03;3.28;;;;;;;6.87;100.00;101779.63;4991589;28;20200;-62
2021/10/08 00:52:51;;;;;;;;;;;;;;;7.03;100.00;101779.66;4992830;28;20503;-59
2021/10/08 00:55:41;;;;;;;5.78;3.47;;;;;;;7.11;100.00;101782.78;4997972;28;20059;-60
2021/10/08 00:58:30;;;;;;;6.63;3.58;;;;;;;7.27;100.00;101778.28;4997645;28;20065;-61
2021/10/08 01:01:16;;;;;;;7.18;4.40;;;;;;;7.44;99.53;101780.00;4985087;28;20102;-61
2021/10/08 01:04:01;;;;;;;9.70;3.97;;;;;;;7.49;99.13;101779.75;4991595;28;20177;-61
2021/10/08 01:06:46;;;;;;;6.70;4.23;;;;;;;7.58;99.08;101784.59;4986269;28;20109;-61
2021/10/08 01:09:31;;;;;;;6.25;3.33;;;;;;;7.66;99.17;101787.66;4992770;28;20427;-61
2021/10/08 01:12:17;;;;;;;7.07;3.80;;;;;;;7.73;98.75;101778.34;4990208;28;20065;-61
2021/10/08 01:15:03;;;;;;;9.57;4.32;;;;;;;7.79;98.49;101777.97;4991651;28;20061;-62
2021/10/08 01:17:51;;;;;;;8.70;3.60;;;;;;;7.78;98.77;101776.25;5003644;28;20059;-63
2021/10/08 01:20:38;;;;;;;5.95;3.30;;;;;;;7.82;98.79;101777.81;5008034;28;20061;-59
2021/10/08 01:23:23;;;;;;;6.18;3.80;;;;;;;7.86;98.52;101782.03;4986802;28;20566;-58
2021/10/08 01:26:08;;;;;;;8.10;3.83;;;;;;;7.93;98.47;101785.19;4992210;28;20056;-60
2021/10/08 01:28:53;;;;;;;10.57;4.43;;;;;;;7.98;97.62;101783.13;4991336;28;20072;-60
2021/10/08 01:31:38;;;;;;;5.97;3.83;;;;;;;8.03;97.85;101774.81;4990124;28;20049;-61
2021/10/08 01:34:24;;;;;;;7.67;4.00;;;;;;;8.08;97.60;101780.78;4987548;28;20053;-58
2021/10/08 01:37:10;;;;;;;7.60;4.00;;;;;;;8.11;97.33;101777.91;4988141;28;20397;-60
2021/10/08 01:39:55;;;;;;;7.00;4.18;;;;;;;8.15;97.01;101771.41;4986784;28;20120;-61
2021/10/08 01:42:41;;;;;;;6.30;3.67;;;;;;;8.15;97.40;101774.09;4991431;28;20129;-60
2021/10/08 01:45:26;;;;;;;9.73;5.38;;;;;;;8.28;96.94;101780.44;4984428;28;20084;-61
2021/10/08 01:48:11;;;;;;;7.00;3.97;;;;;;;8.26;97.06;101768.97;4991220;28;20568;-60
2021/10/08 01:50:56;;;;;;;7.13;4.63;;;;;;;8.27;96.99;101764.47;4990088;28;20539;-63
2021/10/08 01:53:42;;;;;;;10.90;4.55;;;;;;;8.28;96.99;101772.41;4991083;28;20123;-62
2021/10/08 01:56:28;;;;;;;6.65;4.43;;;;;;;8.37;96.78;101771.03;4989477;28;20057;-60
2021/10/08 01:59:14;;;;;;;8.45;4.88;;;;;;;8.30;96.70;101769.66;4983184;28;20554;-61
2021/10/08 02:01:59;;;;;;;5.17;3.53;;;;;;;8.18;97.31;101772.13;4986704;28;20132;-61
2021/10/08 02:04:44;;;;;;;5.90;3.55;;;;;;;8.10;97.36;101765.50;4991078;28;20196;-63
2021/10/08 02:07:30;;;;;;;5.95;4.13;;;;;;;8.06;97.67;101772.84;4984503;28;20114;-60
2021/10/08 02:10:16;;;;;;;6.95;4.03;;;;;;;7.99;98.08;101770.63;4985628;28;20057;-61
2021/10/08 02:13:01;;;;;;;;;;;;;;;7.96;98.14;101768.13;4990120;28;20503;-59
2021/10/08 02:15:47;;;;;;;6.65;3.92;;;;;;;7.86;97.64;101774.00;4984247;28;20106;-61
2021/10/08 02:18:32;;;;;;;6.03;3.63;;;;;;;7.77;98.09;101776.34;4990300;28;20057;-60
2021/10/08 02:21:17;;;;;;;5.50;3.80;;;;;;;7.68;98.41;101777.75;5002709;28;20068;-62
2021/10/08 02:24:02;;;;;;;6.97;4.22;;;;;;;7.68;99.06;101783.09;4998824;28;20050;-61
2021/10/08 02:26:48;;;;;;;7.45;4.80;;;;;;;7.70;99.41;101781.22;4989540;28;20432;-62
2021/10/08 02:29:33;;;;;;;9.68;4.95;;;;;;;7.70;99.21;101778.53;4988021;28;20061;-60
2021/10/08 02:32:18;;;;;;;8.65;4.97;;;;;;;7.69;99.57;101774.13;4987246;28;20061;-62
2021/10/08 02:35:03;;;;;;;8.30;5.10;;;;;;;7.63;99.28;101774.50;4990351;28;20421;-61
2021/10/08 02:37:48;;;;;;;8.65;5.60;;;;;;;7.54;99.16;101773.19;4990702;28;20136;-62
2021/10/08 02:40:34;;;;;;;8.23;5.18;;;;;;;7.40;99.08;101778.47;4990919;28;20131;-61
2021/10/08 02:43:20;;;;;;;8.50;4.53;;;;;;;7.25;99.20;101780.19;4989419;28;20100;-61
2021/10/08 02:46:06;;;;;;;10.32;4.93;;;;;;;7.19;99.62;101782.31;4982819;28;20053;-61
2021/10/08 02:48:51;;;;;;;8.88;5.90;;;;;;;7.15;99.66;101786.97;4986280;28;20556;-61
2021/10/08 02:51:36;;;;;;;9.32;6.05;;;;;;;7.17;100.00;101782.41;4991250;28;20428;-61
2021/10/08 02:54:21;;;;;;;10.00;5.80;;;;;;;7.17;100.00;101781.56;4989843;28;20058;-61
2021/10/08 02:57:06;;;;;;;9.55;5.53;;;;;;;7.09;99.99;101784.63;4986963;28;20053;-60
2021/10/08 02:59:53;;;;;;;9.15;5.07;;;;;;;6.99;99.93;101788.78;4987473;28;20061;-61
2021/10/08 03:02:38;;;;;;;;;;;;;;;6.92;100.00;101784.72;4989709;28;20056;-60
2021/10/08 03:05:23;;;;;;;11.48;6.05;;;;;;;6.90;100.00;101784.81;4983626;28;20016;-61
2021/10/08 03:08:08;;;;;;;7.93;5.28;;;;;;;6.82;100.00;101783.47;4988757;28;20061;-60
2021/10/08 03:10:53;;;;;;;8.70;5.43;;;;;;;6.77;100.00;101788.22;4982746;28;20420;-62
2021/10/08 03:13:38;;;;;;;10.32;6.57;;;;;;;6.73;100.00;101788.34;4990794;28;20054;-59
2021/10/08 03:16:24;;;;;;;12.15;7.13;;;;;;;6.73;100.00;101791.03;4983272;28;20065;-61
2021/10/08 03:19:09;;;;;;;11.20;6.45;;;;;;;6.70;100.00;101793.88;4988751;28;20428;-61
2021/10/08 03:21:54;;;;;;;11.40;7.30;;;;;;;6.71;100.00;101800.91;4989688;28;20411;-61
2021/10/08 03:24:39;;;;;;;11.30;6.75;;;;;;;6.66;100.00;101802.97;4995897;28;20135;-61
2021/10/08 03:27:25;;;;;;;13.85;6.88;;;;;;;6.61;100.00;101796.16;4989689;28;20143;-60
2021/10/08 03:30:14;;;;;;;10.73;6.28;;;;;;;6.54;100.00;101795.63;4990710;28;20057;-61
2021/10/08 03:33:01;;;;;;;11.57;7.18;;;;;;;6.51;100.00;101800.25;4983384;28;20093;-60
2021/10/08 03:35:46;;;;;;;;;;;;;;;6.46;100.00;101803.16;4986242;28;20113;-61
2021/10/08 03:38:32;;;;;;;13.60;7.18;;;;;;;6.47;100.00;101806.69;4990337;28;19933;-61
2021/10/08 03:41:19;;;;;;;12.93;7.50;;;;;;;6.48;100.00;101798.59;4994411;28;20053;-63
2021/10/08 03:44:05;;;;;;;14.73;8.02;;;;;;;6.47;100.00;101799.56;4992283;28;20060;-61
2021/10/08 03:46:52;;;;;;;14.35;7.47;;;;;;;6.48;100.00;101805.75;4989226;28;20053;-61
2021/10/08 03:49:38;;;;;;;14.57;8.35;;;;;;;6.45;100.00;101812.09;4985559;28;20119;-61
2021/10/08 03:52:23;;;;;;;10.82;6.30;;;;;;;6.32;100.00;101808.34;4986615;28;20061;-61
2021/10/08 03:55:09;;;;;;;12.65;5.60;;;;;;;6.26;100.00;101816.66;4992521;28;20049;-62
2021/10/08 03:57:54;;;;;;;13.40;7.23;;;;;;;6.22;100.00;101807.97;4987786;28;20057;-63
2021/10/08 04:00:39;;;;;;;14.52;8.23;;;;;;;6.27;100.00;101818.38;4992794;28;20064;-62
2021/10/08 04:03:24;;;;;;;13.07;8.15;;;;;;;6.26;100.00;101820.19;4986450;28;20197;-59
2021/10/08 04:06:10;;;;;;;13.02;8.07;;;;;;;6.22;100.00;101820.44;4993059;28;20522;-62
2021/10/08 04:08:55;;;;;;;12.75;8.75;;;;;;;6.22;100.00;101812.44;4986606;28;20061;-59
2021/10/08 04:11:40;;;;;;;15.43;8.45;;;;;;;6.27;100.00;101815.72;4991625;28;20539;-62
2021/10/08 04:14:25;;;;;;;13.13;7.28;;;;;;;6.22;100.00;101825.75;5007445;28;20112;-60
2021/10/08 04:17:10;;;;;;;14.13;8.73;;;;;;;6.27;100.00;101826.38;4984223;28;20523;-61
2021/10/08 04:19:55;;;;;;;17.95;9.20;;;;;;;6.28;100.00;101838.78;4993732;28;20084;-62
2021/10/08 04:22:41;;;;;;;19.95;10.23;;;;;;;6.42;100.00;101841.63;4992756;28;20060;-63
2021/10/08 04:25:27;;;;;;;19.67;11.40;;;;;;;6.73;100.00;101839.06;4991648;28;20057;-62
2021/10/08 04:28:11;;;;;;;24.85;14.55;;;;;;;6.92;100.00;101846.09;4990717;28;20517;-60
2021/10/08 04:30:57;;;;;;;39.67;19.13;;;;;;;7.19;100.00;101839.25;4989323;28;20128;-61
2021/10/08 04:33:42;;;;;;;33.93;15.57;;;;;;;7.43;100.00;101845.06;4990953;28;20061;-62
2021/10/08 04:36:27;;;;;;;42.75;18.55;;;;;;;7.72;100.00;101848.78;4974939;28;20105;-60
2021/10/08 04:39:13;;;;;;;56.78;23.55;;;;;;;7.90;100.00;101852.22;4987116;28;20568;-62
2021/10/08 04:41:58;;;;;;;58.55;22.92;;;;;;;8.06;100.00;101847.72;4991739;28;20136;-62
2021/10/08 04:44:45;;;;;;;59.17;24.60;;;;;;;8.12;100.00;101851.84;4992663;28;20060;-62
2021/10/08 04:47:30;;;;;;;88.10;28.88;;;;;;;8.27;100.00;101858.09;4991362;28;20073;-63
2021/10/08 04:50:17;;;;;;;80.30;27.60;;;;;;;8.21;100.00;101854.00;4990404;28;20121;-63
2021/10/08 04:53:13;;;;;;;99.68;28.25;;;;;;;8.26;100.00;101853.72;4990147;28;20124;-62
2021/10/08 04:55:59;;;;;;;97.35;29.42;;;;;;;8.20;100.00;101854.94;4990720;28;20057;-61
2021/10/08 04:58:44;;;;;;;78.40;29.23;;;;;;;8.24;100.00;101856.47;4997830;28;20128;-63
2021/10/08 05:01:31;;;;;;;78.18;26.48;;;;;;;8.24;100.00;101856.47;4980804;28;20061;-63
2021/10/08 05:04:16;;;;;;;;;;;;;;;8.36;100.00;101858.47;4974630;28;20053;-61
2021/10/08 05:07:01;;;;;;;82.82;27.48;;;;;;;8.31;100.00;101857.00;4986912;28;20280;-63
2021/10/08 05:09:46;;;;;;;104.53;29.38;;;;;;;8.30;100.00;101850.78;4992501;28;20169;-62
2021/10/08 05:12:32;;;;;;;88.65;29.08;;;;;;;8.26;100.00;101854.56;4990338;28;20065;-64
2021/10/08 05:15:18;;;;;;;86.45;28.15;;;;;;;8.23;100.00;101848.53;4991785;28;20065;-59
2021/10/08 05:18:03;;;;;;;88.72;26.45;;;;;;;8.12;100.00;101847.34;4991509;28;20198;-61
2021/10/08 05:20:48;;;;;;;98.97;27.00;;;;;;;8.08;100.00;101858.34;4992508;28;20061;-61
2021/10/08 05:23:34;;;;;;;86.22;25.85;;;;;;;8.01;100.00;101862.28;4990725;28;20069;-62
2021/10/08 05:26:19;;;;;;;85.43;27.88;;;;;;;7.96;100.00;101867.91;4991049;28;20061;-60
2021/10/08 05:29:06;;;;;;;111.77;25.87;;;;;;;7.94;100.00;101860.94;4987678;28;20485;-57
2021/10/08 05:31:50;;;;;;;;;;;;;;;8.00;100.00;101863.25;4985949;28;20332;-59
2021/10/08 05:34:37;;;;;;;113.85;26.05;;;;;;;7.95;100.00;101863.53;4979341;28;20030;-61
2021/10/08 05:37:21;;;;;;;69.05;24.80;;;;;;;8.03;100.00;101863.06;4982507;28;20054;-61
2021/10/08 05:40:07;;;;;;;112.43;24.67;;;;;;;7.92;100.00;101872.56;5016754;23;20049;-58
2021/10/08 05:42:53;;;;;;;;;;;;;;;7.77;100.00;101877.91;5040146;28;20517;-58
2021/10/08 05:45:40;;;;;;;107.47;25.15;;;;;;;7.70;100.00;101882.78;5033150;28;19928;-57
2021/10/08 05:48:25;;;;;;;83.88;23.38;;;;;;;7.57;100.00;101871.00;5030815;28;20171;-56
2021/10/08 05:51:10;;;;;;;103.88;23.25;;;;;;;7.62;100.00;101874.31;5008545;28;20185;-60
2021/10/08 05:53:55;;;;;;;122.78;23.13;;;;;;;7.58;100.00;101878.09;5005648;28;20057;-58
2021/10/08 05:56:40;;;;;;;98.63;23.95;;;;;;;7.55;100.00;101887.13;5008927;28;20077;-55
2021/10/08 05:59:25;;;;;;;89.82;24.05;;;;;;;7.58;100.00;101884.31;5010331;28;20100;-57
2021/10/08 06:02:12;;;;;;;85.68;24.80;;;;;;;7.62;100.00;101887.66;5002916;28;20127;-58
2021/10/08 06:04:57;;;;;;;102.13;27.10;;;;;;;7.61;100.00;101881.47;5010781;28;20069;-63
2021/10/08 06:07:42;;;;;;;63.60;25.27;;;;;;;7.71;100.00;101888.97;5010128;28;20127;-62
2021/10/08 06:10:27;;;;;;;86.97;25.35;;;;;;;7.77;100.00;101884.13;5009859;28;20056;-60
2021/10/08 06:13:13;;;;;;;79.63;25.52;;;;;;;7.77;100.00;101888.63;5012628;28;20188;-60
2021/10/08 06:15:58;;;;;;;66.78;24.70;;;;;;;7.83;100.00;101894.50;5010456;28;20519;-60
2021/10/08 06:18:44;;;;;;;56.42;23.55;;;;;;;7.94;100.00;101893.03;5008909;28;20570;-60
2021/10/08 06:21:29;;;;;;;52.78;22.60;;;;;;;7.94;100.00;101898.38;5010408;28;20103;-61
2021/10/08 06:24:14;;;;;;;60.25;24.15;;;;;;;7.92;100.00;101899.28;5026155;28;20414;-62
2021/10/08 06:26:59;;;;;;;73.43;27.42;;;;;;;7.99;100.00;101898.97;5029420;28;20057;-62
2021/10/08 06:29:44;;;;;;;67.30;26.33;;;;;;;8.04;100.00;101903.09;5023699;28;20103;-59
2021/10/08 06:32:30;;;;;;;82.75;31.20;;;;;;;8.17;100.00;101905.94;5029632;28;20045;-60
2021/10/08 06:35:17;;;;;;;76.88;29.00;;;;;;;8.20;100.00;101905.75;5030784;28;20075;-59
2021/10/08 06:38:02;;;;;;;94.05;32.53;;;;;;;8.24;100.00;101904.63;5024418;28;20127;-61
2021/10/08 06:40:47;;;;;;;89.68;32.78;;;;;;;8.34;100.00;101900.50;5029282;28;20100;-63
2021/10/08 06:43:32;;;;;;;84.78;30.88;;;;;;;8.54;100.00;101899.34;5029237;28;20139;-60
2021/10/08 06:46:17;;;;;;;104.47;36.33;;;;;;;8.52;100.00;101908.38;5031349;28;20507;-61
2021/10/08 06:49:03;;;;;;;102.43;33.40;;;;;;;8.50;100.00;101904.00;5030103;28;20522;-60
2021/10/08 06:51:49;;;;;;;117.20;35.78;;;;;;;8.61;100.00;101908.72;5022584;28;20625;-60
2021/10/08 06:54:34;;;;;;;94.80;33.83;;;;;;;8.87;100.00;101911.63;5029316;28;20060;-62
2021/10/08 06:57:19;;;;;;;83.53;32.58;;;;;;;8.88;100.00;101916.03;5027434;28;20598;-63
2021/10/08 07:00:06;;;;;;;86.38;33.63;;;;;;;8.83;100.00;101927.03;5027596;28;20155;-60
2021/10/08 07:02:53;;;;;;;74.40;29.30;;;;;;;9.14;100.00;101919.81;5022302;28;20527;-58
2021/10/08 07:05:38;;;;;;;78.93;30.65;;;;;;;9.05;100.00;101924.78;5027082;28;20407;-61
2021/10/08 07:08:24;;;;;;;76.07;32.50;;;;;;;9.18;99.19;101926.72;5025404;28;20518;-60
2021/10/08 07:11:09;;;;;;;;;;;;;;;8.99;99.89;101925.13;5023576;28;20180;-61
2021/10/08 07:13:54;;;;;;;73.10;30.35;;;;;;;9.07;100.00;101927.38;5029603;28;19929;-60
2021/10/08 07:16:40;;;;;;;74.72;32.80;;;;;;;9.31;99.35;101928.53;5023888;28;20068;-61
2021/10/08 07:19:25;;;;;;;72.60;32.17;;;;;;;9.45;99.32;101929.47;5022727;28;20439;-60
2021/10/08 07:22:11;;;;;;;66.25;30.15;;;;;;;9.46;98.65;101936.56;5029258;28;20419;-60
2021/10/08 07:24:58;;;;;;;56.53;27.75;;;;;;;9.76;97.74;101931.97;5029596;28;20111;-59
2021/10/08 07:27:45;;;;;;;56.55;27.55;;;;;;;9.79;97.15;101926.41;5029036;28;20064;-60
2021/10/08 07:30:30;;;;;;;55.42;28.40;;;;;;;9.83;96.20;101937.81;5028350;28;20068;-58
2021/10/08 07:33:15;;;;;;;57.83;28.30;;;;;;;9.75;96.24;101932.94;5024644;28;20131;-55
2021/10/08 07:36:00;;;;;;;56.50;26.55;;;;;;;9.71;96.72;101935.88;5027469;28;20143;-61
2021/10/08 07:38:45;;;;;;;54.13;27.52;;;;;;;9.77;95.57;101932.81;5028960;28;20072;-57
2021/10/08 07:41:32;;;;;;;60.42;28.75;;;;;;;9.72;95.20;101935.81;5029654;28;20514;-58
2021/10/08 07:44:17;;;;;;;62.15;29.63;;;;;;;9.55;94.93;101942.22;5028301;28;20533;-58
2021/10/08 07:47:02;;;;;;;53.72;27.58;;;;;;;9.57;93.98;101940.28;5029091;28;20067;-57
2021/10/08 07:49:47;;;;;;;59.05;28.77;;;;;;;9.38;95.26;101953.16;5028545;28;20061;-57
2021/10/08 07:52:33;;;;;;;56.58;28.50;;;;;;;9.40;94.97;101956.59;5027990;28;20069;-57
2021/10/08 07:55:18;;;;;;;66.32;31.20;;;;;;;9.38;95.27;101958.50;5029383;28;20423;-56
2021/10/08 07:58:04;;;;;;;57.20;27.00;;;;;;;9.93;91.54;101960.38;5028554;28;20146;-55
2021/10/08 08:00:49;;;;;;;;;;;;;;;9.48;94.81;101967.69;5029055;28;20142;-57
2021/10/08 08:03:34;;;;;;;64.75;26.40;;;;;;;9.65;93.90;101959.44;5022145;28;20385;-58
2021/10/08 08:06:19;;;;;;;61.97;28.08;;;;;;;9.50;93.77;101960.41;5027425;28;20186;-56
2021/10/08 08:09:04;;;;;;;57.72;27.52;;;;;;;9.66;92.55;101963.84;5024688;28;20517;-58
2021/10/08 08:11:50;;;;;;;58.88;27.42;;;;;;;9.78;93.04;101956.84;5025392;28;20653;-57
2021/10/08 08:14:36;;;;;;;56.15;27.42;;;;;;;9.79;91.75;101960.41;5027241;28;20147;-62
2021/10/08 08:17:21;;;;;;;57.33;26.83;;;;;;;9.97;90.31;101956.56;5014208;28;20056;-57
2021/10/08 08:20:08;;;;;;;55.10;26.67;;;;;;;10.24;89.80;101962.84;5019768;28;20060;-60
2021/10/08 08:22:53;;;;;;;54.75;27.23;;;;;;;10.37;88.97;101962.88;5016162;28;20164;-59
2021/10/08 08:25:38;;;;;;;58.08;28.02;;;;;;;10.02;90.19;101958.94;5020818;28;20053;-58
2021/10/08 08:28:23;;;;;;;55.88;25.98;;;;;;;10.16;91.02;101962.44;5027511;28;20191;-59
2021/10/08 08:31:10;;;;;;;59.28;27.58;;;;;;;10.28;89.93;101965.31;5026252;28;20052;-57
2021/10/08 08:33:55;;;;;;;58.00;29.80;;;;;;;10.23;90.96;101961.13;5017409;28;20064;-59
2021/10/08 08:36:40;;;;;;;41.33;20.08;;;;;;;11.10;89.57;101960.59;5026808;28;20180;-60
2021/10/08 08:39:25;;;;;;;60.87;30.00;;;;;;;10.88;86.29;101959.50;5022303;28;20060;-58
2021/10/08 08:42:10;;;;;;;60.65;29.58;;;;;;;10.67;88.16;101965.38;5022193;28;20299;-60
2021/10/08 08:44:55;;;;;;;56.65;29.75;;;;;;;10.72;87.31;101955.16;5020624;28;20638;-57
2021/10/08 08:47:42;;;;;;;55.28;28.80;;;;;;;11.24;86.64;101959.63;5019316;28;20616;-60
2021/10/08 08:50:27;;;;;;;53.63;27.83;;;;;;;11.41;84.79;101959.34;5020628;28;20095;-59
2021/10/08 08:53:14;;;;;;;58.72;29.00;;;;;;;11.37;85.71;101962.38;5017651;28;20427;-56
2021/10/08 08:55:59;;;;;;;57.75;30.92;;;;;;;11.50;84.34;101957.84;5016845;28;20056;-59
2021/10/08 08:58:44;;;;;;;54.80;30.50;;;;;;;11.34;85.36;101954.50;5019382;28;20064;-57
2021/10/08 09:01:30;;;;;;;53.88;28.63;;;;;;;11.60;83.40;101958.00;5020506;28;20057;-58
2021/10/08 09:04:19;;;;;;;56.13;29.15;;;;;;;11.84;83.64;101950.94;5024045;28;20502;-57
2021/10/08 09:07:14;;;;;;;46.65;25.70;;;;;;;12.33;79.20;101947.34;5024127;28;20193;-60
2021/10/08 09:10:10;;;;;;;45.60;26.10;;;;;;;12.39;80.68;101951.41;5019617;28;20534;-57
2021/10/08 09:12:56;;;;;;;51.55;28.88;;;;;;;12.21;81.15;101951.81;5018066;28;20541;-56
2021/10/08 09:15:48;;;;;;;47.45;26.13;;;;;;;12.62;79.35;101952.34;5017996;28;20514;-56
2021/10/08 09:18:37;;;;;;;53.90;28.02;;;;;;;12.22;80.42;101948.13;5014767;28;20076;-61
2021/10/08 09:21:24;;;;;;;46.80;27.30;;;;;;;12.55;80.28;101951.97;5018556;28;20056;-59
2021/10/08 09:24:22;;;;;;;50.10;27.23;;;;;;;12.43;80.72;101952.88;5016741;28;20115;-58
2021/10/08 09:27:08;;;;;;;49.35;27.17;;;;;;;12.69;81.62;101948.25;5014594;28;20056;-59
2021/10/08 09:29:56;;;;;;;44.20;26.38;;;;;;;12.87;79.54;101955.75;5016324;28;20167;-59
2021/10/08 09:32:44;;;;;;;47.75;27.98;;;;;;;12.50;81.10;101954.16;5023950;28;20611;-59
2021/10/08 09:35:29;;;;;;;41.17;25.10;;;;;;;12.44;81.92;101958.16;5017838;28;20501;-59
2021/10/08 09:38:16;;;;;;;43.00;24.88;;;;;;;12.80;80.45;101950.97;5013848;28;20080;-56
2021/10/08 09:41:05;;;;;;;44.40;25.88;;;;;;;12.56;80.97;101953.69;5018066;28;20084;-57
2021/10/08 09:43:51;;;;;;;48.88;27.83;;;;;;;12.44;81.44;101943.84;5019163;28;20045;-59
2021/10/08 09:46:36;;;;;;;47.65;25.90;;;;;;;12.52;80.83;101942.28;5020467;28;20092;-58
2021/10/08 09:49:22;;;;;;;49.92;27.15;;;;;;;12.50;81.29;101938.84;5017008;28;20477;-57
2021/10/08 09:52:26;;;;;;;47.85;25.20;;;;;;;12.48;82.03;101943.50;5016257;28;20065;-58
2021/10/08 09:55:13;;;;;;;55.15;26.92;;;;;;;12.31;80.87;101933.09;5025477;28;20443;-59
2021/10/08 09:57:58;;;;;;;48.80;25.23;;;;;;;12.46;81.20;101931.13;5020727;28;20408;-58
2021/10/08 10:00:46;;;;;;;41.78;22.23;;;;;;;12.59;79.89;101940.84;5020947;28;20091;-59
2021/10/08 10:03:32;;;;;;;38.58;22.40;;;;;;;12.71;77.98;101936.38;5022095;28;20111;-57
2021/10/08 10:06:19;;;;;;;42.00;23.30;;;;;;;12.82;77.76;101936.41;5019600;28;20131;-60
2021/10/08 10:09:07;;;;;;;38.67;21.48;;;;;;;13.03;77.20;101933.03;5021111;28;20059;-57
2021/10/08 10:11:54;;;;;;;35.47;20.58;;;;;;;13.21;75.95;101930.75;5018982;28;20194;-58
2021/10/08 10:14:40;;;;;;;44.10;20.92;;;;;;;13.72;73.87;101923.91;5021719;28;20132;-58
2021/10/08 10:17:25;;;;;;;31.30;17.45;;;;;;;13.71;72.09;101930.28;5014178;28;20046;-59
2021/10/08 10:20:11;;;;;;;28.58;17.38;;;;;;;13.65;70.06;101921.84;5028125;28;20118;-56
2021/10/08 10:22:57;;;;;;;26.52;15.30;;;;;;;13.95;70.14;101921.19;5026738;28;20056;-60
2021/10/08 10:25:44;;;;;;;33.03;17.58;;;;;;;13.71;69.17;101916.78;5028423;28;20048;-60
2021/10/08 10:28:31;;;;;;;33.00;18.23;;;;;;;13.70;69.82;101911.53;5030239;28;20056;-61
2021/10/08 10:31:18;;;;;;;24.67;13.88;;;;;;;13.87;67.96;101912.88;5031844;28;20518;-58
2021/10/08 10:34:04;;;;;;;29.38;15.35;;;;;;;13.90;69.39;101915.31;5031754;28;20052;-61
2021/10/08 10:36:49;;;;;;;27.25;14.55;;;;;;;14.02;69.29;101911.63;5026040;28;20155;-58
2021/10/08 10:39:34;;;;;;;31.80;14.57;;;;;;;14.24;66.76;101911.56;5031379;28;20060;-65
2021/10/08 10:42:19;;;;;;;27.48;14.20;;;;;;;14.25;66.49;101920.50;5032030;28;20107;-57
2021/10/08 10:45:18;;;;;;;30.95;14.52;;;;;;;14.38;65.66;101915.81;5031230;28;20064;-57
2021/10/08 10:48:16;;;;;;;23.50;13.10;;;;;;;14.20;62.97;101909.22;5031022;28;20060;-60
2021/10/08 10:51:10;;;;;;;25.20;12.05;;;;;;;14.18;64.28;101900.41;5032147;28;20056;-61
2021/10/08 10:53:55;;;;;;;25.10;11.90;;;;;;;14.50;64.10;101903.16;5031133;28;20065;-60
2021/10/08 10:56:41;;;;;;;26.63;13.40;;;;;;;14.38;64.38;101899.59;5030810;28;20513;-58
2021/10/08 10:59:27;;;;;;;18.90;11.45;;;;;;;14.50;62.46;101893.19;5031136;28;20150;-55
2021/10/08 11:02:24;;;;;;;20.30;11.18;;;;;;;14.73;62.40;101895.78;5031338;28;20067;-55
2021/10/08 11:05:18;;;;;;;23.25;11.80;;;;;;;14.45;61.48;101892.75;5030837;28;20060;-59
2021/10/08 11:08:21;;;;;;;28.88;11.07;;;;;;;14.55;60.97;101887.38;5024680;28;20051;-58
2021/10/08 11:11:17;;;;;;;19.65;10.60;;;;;;;14.59;60.96;101888.88;5031197;28;20127;-58
2021/10/08 11:14:17;;;;;;;;;;;;;;;14.78;59.32;101880.88;5025478;28;20059;-56
2021/10/08 11:17:40;;;;;;;22.60;9.25;;;;;;;14.82;59.29;101876.09;5027716;28;20405;-60
2021/10/08 11:20:47;;;;;;;19.98;9.07;;;;;;;15.21;60.02;101877.16;5030620;28;20072;-61
2021/10/08 11:23:36;;;;;;;17.98;9.23;;;;;;;15.12;57.33;101868.00;5031682;28;20068;-60
2021/10/08 11:26:21;;;;;;;18.27;9.85;;;;;;;15.09;57.48;101864.72;5030491;28;20051;-60
2021/10/08 11:29:07;;;;;;;18.45;9.10;;;;;;;15.07;58.87;101855.88;5030834;28;20059;-59
2021/10/08 11:32:00;;;;;;;20.73;10.60;;;;;;;15.01;59.37;101865.38;5030667;28;20430;-59
2021/10/08 11:34:50;;;;;;;21.30;9.98;;;;;;;14.91;56.58;101865.31;5031105;28;20283;-60
2021/10/08 11:37:42;;;;;;;22.83;10.13;;;;;;;15.05;57.48;101860.56;5031181;28;20064;-60
2021/10/08 11:40:29;;;;;;;13.57;9.05;;;;;;;14.95;57.87;101857.81;5064456;23;20055;-63
2021/10/08 11:43:21;;;;;;;20.48;9.07;;;;;;;15.14;57.06;101865.16;5081965;28;20130;-62
2021/10/08 11:46:18;;;;;;;17.00;8.93;;;;;;;15.24;56.85;101871.47;5064408;28;20098;-63
2021/10/08 11:49:17;;;;;;;15.40;8.93;;;;;;;15.35;55.95;101860.56;5070552;28;20059;-63
2021/10/08 11:52:03;;;;;;;17.65;9.07;;;;;;;15.56;56.81;101865.06;5049933;28;20052;-63
2021/10/08 11:55:03;;;;;;;13.40;8.63;;;;;;;15.41;56.64;101867.31;5050015;28;20101;-63
2021/10/08 11:57:51;;;;;;;24.10;10.30;;;;;;;15.44;56.68;101862.47;5049947;28;20122;-63
2021/10/08 12:00:38;;;;;;;19.23;9.88;;;;;;;14.98;57.76;101859.38;5052182;28;20102;-61
2021/10/08 12:03:25;;;;;;;16.90;9.50;;;;;;;15.10;57.87;101863.72;5038109;28;20068;-62
2021/10/08 12:06:10;;;;;;;20.70;9.05;;;;;;;14.93;56.35;101858.94;5051453;28;20051;-62
2021/10/08 12:08:56;;;;;;;25.45;8.63;;;;;;;14.84;57.23;101864.16;5045941;28;20052;-62
2021/10/08 12:11:43;;;;;;;16.30;8.77;;;;;;;14.74;57.04;101857.81;5048847;28;20052;-62
2021/10/08 12:14:28;;;;;;;;;;;;;;;14.99;57.00;101855.69;5052242;28;20134;-60
2021/10/08 12:17:13;;;;;;;22.08;10.02;;;;;;;15.15;57.19;101859.66;5050453;28;20875;-61
2021/10/08 12:19:58;;;;;;;18.45;9.23;;;;;;;15.25;56.78;101848.84;5040140;28;20052;-62
2021/10/08 12:22:43;;;;;;;14.02;8.88;;;;;;;15.23;58.02;101852.69;5046922;28;20059;-63
2021/10/08 12:25:28;;;;;;;22.90;9.95;;;;;;;15.22;57.14;101846.41;5043052;28;20144;-63
2021/10/08 12:28:19;;;;;;;20.20;9.25;;;;;;;15.20;57.34;101837.59;5033289;28;20068;-63
2021/10/08 12:31:07;;;;;;;18.02;9.73;;;;;;;15.31;58.17;101845.59;5046289;28;20037;-64
2021/10/08 12:33:52;;;;;;;20.42;10.18;;;;;;;15.29;57.91;101839.50;5051550;28;20553;-62
2021/10/08 12:36:37;;;;;;;19.55;9.55;;;;;;;14.97;57.73;101831.50;5052115;28;20051;-64
2021/10/08 12:39:22;;;;;;;17.55;9.45;;;;;;;15.04;57.41;101842.66;5050723;28;20514;-61
2021/10/08 12:42:16;;;;;;;17.58;8.98;;;;;;;15.32;58.08;101838.34;5051340;28;20052;-64
2021/10/08 12:45:03;;;;;;;21.15;10.10;;;;;;;15.21;57.26;101842.84;5051153;28;20059;-63
2021/10/08 12:47:49;;;;;;;23.17;8.45;;;;;;;15.00;54.60;101836.63;5050575;28;20426;-63